createdAt,value
2019-05-02T00:02:01.159Z,99170.37
2019-05-02T00:04:28.013Z,99174.61
2019-05-02T00:06:54.921Z,99167.00
2019-05-02T00:09:21.876Z,99175.63
2019-05-02T00:11:58.491Z,99168.08
2019-05-02T00:14:17.636Z,99174.18
2019-05-02T00:16:45.245Z,99168.29
2019-05-02T00:19:14.099Z,99164.28
2019-05-02T00:21:43.055Z,99163.84
2019-05-02T00:24:10.523Z,99164.45
2019-05-02T00:26:38.529Z,99159.73
2019-05-02T00:29:05.399Z,99163.64
2019-05-02T00:31:32.670Z,99158.05
2019-05-02T00:33:59.529Z,99156.26
2019-05-02T00:36:26.800Z,99154.10
2019-05-02T00:38:54.667Z,99152.82
2019-05-02T00:41:21.608Z,99156.13
2019-05-02T00:43:48.849Z,99148.30
2019-05-02T00:46:15.718Z,99141.84
2019-05-02T00:48:43.861Z,99141.33
2019-05-02T00:51:10.725Z,99137.42
2019-05-02T00:53:37.954Z,99136.13
2019-05-02T01:02:00.139Z,99133.25
2019-05-02T01:04:27.698Z,99126.98
2019-05-02T01:06:55.856Z,99119.95
2019-05-02T01:09:22.729Z,99123.79
2019-05-02T01:11:49.589Z,99120.42
2019-05-02T01:14:17.440Z,99122.73
2019-05-02T01:16:44.676Z,99120.81
2019-05-02T01:19:15.766Z,99121.05
2019-05-02T01:21:40.497Z,99114.44
2019-05-02T01:24:07.380Z,99114.95
2019-05-02T01:26:34.504Z,99113.22
2019-05-02T01:29:02.579Z,99109.16
2019-05-02T01:31:29.524Z,99108.75
2019-05-02T01:33:56.460Z,99108.45
2019-05-02T01:36:23.420Z,99099.43
2019-05-02T01:38:50.281Z,99102.13
2019-05-02T01:41:17.518Z,99102.91
2019-05-02T01:43:44.465Z,99097.01
2019-05-02T01:46:11.321Z,99093.61
2019-05-02T01:48:40.215Z,99094.22
2019-05-02T01:51:09.933Z,99089.03
2019-05-02T01:53:35.835Z,99086.06
2019-05-02T01:56:03.939Z,99079.23
2019-05-02T01:58:30.884Z,99077.03
2019-05-02T02:00:58.092Z,99081.86
2019-05-02T02:03:25.133Z,99072.59
2019-05-02T02:05:53.340Z,99068.86
2019-05-02T02:08:20.292Z,99064.28
2019-05-02T02:10:50.844Z,99069.06
2019-05-02T02:13:16.213Z,99067.72
2019-05-02T02:15:43.137Z,99063.81
2019-05-02T02:18:09.998Z,99056.97
2019-05-02T02:20:36.885Z,99056.83
2019-05-02T02:23:03.831Z,99058.75
2019-05-02T02:25:32.291Z,99062.58
2019-05-02T02:27:59.991Z,99057.02
2019-05-02T02:30:27.931Z,99058.38
2019-05-02T02:33:00.825Z,99060.09
2019-05-02T02:35:23.758Z,99056.25
2019-05-02T02:37:53.051Z,99057.97
2019-05-02T02:40:19.241Z,99058.52
2019-05-02T02:42:46.104Z,99054.78
2019-05-02T02:45:18.455Z,99057.61
2019-05-02T02:47:41.672Z,99061.67
2019-05-02T02:50:08.676Z,99065.38
2019-05-02T02:52:37.778Z,99067.50
2019-05-02T02:55:04.179Z,99069.48
2019-05-02T02:57:31.133Z,99064.73
2019-05-02T03:00:06.654Z,99060.75
2019-05-02T03:02:26.915Z,99060.75
2019-05-02T03:04:53.842Z,99064.59
2019-05-02T03:07:25.771Z,99062.43
2019-05-02T03:09:49.265Z,99061.59
2019-05-02T03:12:16.618Z,99067.48
2019-05-02T03:14:47.190Z,99069.97
2019-05-02T03:17:12.168Z,99066.13
2019-05-02T03:19:39.057Z,99063.64
2019-05-02T03:22:05.973Z,99061.66
2019-05-02T03:24:36.514Z,99067.83
2019-05-02T03:27:01.514Z,99064.23
2019-05-02T03:29:39.220Z,99070.28
2019-05-02T03:32:14.762Z,99075.36
2019-05-02T03:34:44.974Z,99070.02
2019-05-02T03:36:54.621Z,99068.36
2019-05-02T03:39:21.623Z,99073.08
2019-05-02T03:41:55.089Z,99072.47
2019-05-02T03:44:24.698Z,99071.94
2019-05-02T03:46:46.169Z,99071.83
2019-05-02T03:49:13.249Z,99068.63
2019-05-02T03:51:40.288Z,99075.09
2019-05-02T03:54:10.191Z,99073.61
2019-05-02T03:56:35.766Z,99073.11
2019-05-02T03:59:02.711Z,99069.70
2019-05-02T04:01:34.844Z,99070.55
2019-05-02T04:03:58.221Z,99067.28
2019-05-02T04:06:25.185Z,99069.53
2019-05-02T04:08:59.185Z,99066.27
2019-05-02T04:11:21.039Z,99072.47
2019-05-02T04:13:48.273Z,99065.88
2019-05-02T04:16:17.427Z,99068.70
2019-05-02T04:18:55.003Z,99066.45
2019-05-02T04:21:13.374Z,99070.92
2019-05-02T04:23:40.363Z,99073.75
2019-05-02T04:26:12.723Z,99062.87
2019-05-02T04:28:35.916Z,99061.02
2019-05-02T04:31:02.857Z,99064.28
2019-05-02T04:33:34.628Z,99065.64
2019-05-02T04:35:59.528Z,99063.01
2019-05-02T04:38:41.723Z,99061.86
2019-05-02T04:40:55.357Z,99069.17
2019-05-02T04:43:22.268Z,99067.02
2019-05-02T04:45:56.119Z,99069.41
2019-05-02T04:48:18.476Z,99079.95
2019-05-02T04:50:48.365Z,99072.34
2019-05-02T04:53:14.095Z,99079.88
2019-05-02T04:55:41.078Z,99072.88
2019-05-02T04:58:08.500Z,99070.82
2019-05-02T05:00:38.967Z,99078.50
2019-05-02T05:03:07.223Z,99076.78
2019-05-02T05:05:32.810Z,99079.34
2019-05-02T05:07:59.753Z,99086.34
2019-05-02T05:10:27.666Z,99081.93
2019-05-02T05:12:54.774Z,99084.28
2019-05-02T05:15:35.962Z,99086.61
2019-05-02T05:17:50.381Z,99085.20
2019-05-02T05:20:18.318Z,99083.01
2019-05-02T05:22:45.972Z,99091.53
2019-05-02T05:25:17.732Z,99088.53
2019-05-02T05:27:42.578Z,99089.16
2019-05-02T05:30:15.517Z,99089.12
2019-05-02T05:32:39.007Z,99088.59
2019-05-02T05:35:08.968Z,99088.66
2019-05-02T05:37:34.476Z,99085.23
2019-05-02T05:40:01.809Z,99088.60
2019-05-02T05:42:32.694Z,99077.78
2019-05-02T05:44:58.352Z,99082.23
2019-05-02T05:47:27.312Z,99079.59
2019-05-02T05:49:57.693Z,99085.36
2019-05-02T05:52:22.768Z,99083.82
2019-05-02T05:54:49.740Z,99083.03
2019-05-02T05:57:20.838Z,99079.51
2019-05-02T05:59:45.568Z,99080.50
2019-05-02T06:02:14.597Z,99081.20
2019-05-02T06:04:41.027Z,99084.84
2019-05-02T06:07:07.966Z,99075.85
2019-05-02T06:09:34.830Z,99078.95
2019-05-02T06:12:03.044Z,99079.88
2019-05-02T06:14:29.959Z,99078.94
2019-05-02T06:16:56.872Z,99079.66
2019-05-02T06:19:23.750Z,99073.33
2019-05-02T06:21:50.942Z,99075.36
2019-05-02T06:24:17.900Z,99077.92
2019-05-02T06:26:49.587Z,99077.04
2019-05-02T06:29:18.796Z,99071.63
2019-05-02T06:31:43.197Z,99078.70
2019-05-02T06:34:10.900Z,99080.02
2019-05-02T06:36:38.131Z,99080.05
2019-05-02T06:39:05.384Z,99081.97
2019-05-02T06:41:32.521Z,99084.27
2019-05-02T06:43:59.390Z,99075.34
2019-05-02T06:46:27.482Z,99074.22
2019-05-02T06:48:54.831Z,99066.49
2019-05-02T06:51:21.703Z,99067.66
2019-05-02T06:53:48.965Z,99059.16
2019-05-02T06:56:16.008Z,99056.17
2019-05-02T06:58:45.976Z,99054.97
2019-05-02T07:01:16.207Z,99049.36
2019-05-02T07:03:45.898Z,99056.17
2019-05-02T07:06:10.126Z,99052.08
2019-05-02T07:08:37.080Z,99059.44
2019-05-02T07:11:04.030Z,99063.58
2019-05-02T07:13:30.938Z,99055.63
2019-05-02T07:15:57.860Z,99057.93
2019-05-02T07:18:24.816Z,99047.78
2019-05-02T07:20:52.069Z,99055.45
2019-05-02T07:23:18.925Z,99041.99
2019-05-02T07:25:45.813Z,99050.30
2019-05-02T07:28:12.741Z,99036.41
2019-05-02T07:30:39.632Z,99051.45
2019-05-02T07:33:06.525Z,99043.63
2019-05-02T07:35:33.466Z,99049.06
2019-05-02T07:38:00.333Z,99051.64
2019-05-02T07:40:27.238Z,99045.76
2019-05-02T07:42:54.194Z,99056.80
2019-05-02T07:45:21.147Z,99051.84
2019-05-02T07:47:48.166Z,99056.89
2019-05-02T07:50:15.106Z,99045.08
2019-05-02T07:52:42.283Z,99047.24
2019-05-02T07:55:10.191Z,99043.74
2019-05-02T07:57:37.259Z,99044.56
2019-05-02T08:00:04.539Z,99047.72
2019-05-02T08:02:33.366Z,99052.41
2019-05-02T08:05:00.591Z,99041.08
2019-05-02T08:07:34.143Z,99045.57
2019-05-02T08:09:56.114Z,99052.64
2019-05-02T08:12:23.381Z,99045.55
2019-05-02T08:14:50.239Z,99051.09
2019-05-02T08:17:19.229Z,99048.91
2019-05-02T08:19:45.702Z,99045.77
2019-05-02T08:22:14.527Z,99043.55
2019-05-02T08:24:41.617Z,99048.41
2019-05-02T08:27:08.565Z,99053.14
2019-05-02T08:29:35.513Z,99045.74
2019-05-02T08:32:02.811Z,99038.11
2019-05-02T08:34:29.719Z,99050.16
2019-05-02T08:36:58.825Z,99045.56
2019-05-02T08:39:33.039Z,99045.13
2019-05-02T08:41:56.383Z,99049.38
2019-05-02T08:44:22.854Z,99044.62
2019-05-02T08:46:51.533Z,99048.39
2019-05-02T08:49:20.081Z,99047.67
2019-05-02T08:51:47.099Z,99050.88
2019-05-02T08:54:13.960Z,99051.86
2019-05-02T08:56:40.924Z,99047.33
2019-05-02T08:59:07.870Z,99052.21
2019-05-02T09:01:35.655Z,99046.19
2019-05-02T09:04:02.838Z,99044.09
2019-05-02T09:06:29.791Z,99047.39
2019-05-02T09:08:57.036Z,99046.95
2019-05-02T09:11:23.983Z,99043.78
2019-05-02T09:13:52.650Z,99034.73
2019-05-02T09:16:23.757Z,99039.13
2019-05-02T09:18:53.358Z,99033.98
2019-05-02T09:21:17.069Z,99037.48
2019-05-02T09:23:44.075Z,99036.45
2019-05-02T09:26:11.923Z,99036.21
2019-05-02T09:28:38.937Z,99028.20
2019-05-02T09:31:06.744Z,99029.47
2019-05-02T09:33:36.911Z,99029.47
2019-05-02T09:36:02.698Z,99022.23
2019-05-02T09:38:29.620Z,99020.99
2019-05-02T09:40:56.581Z,99017.79
2019-05-02T09:43:23.531Z,99025.30
2019-05-02T09:45:52.004Z,99017.97
2019-05-02T09:48:22.854Z,99017.01
2019-05-02T09:50:48.301Z,99015.59
2019-05-02T09:53:20.858Z,99004.13
2019-05-02T09:55:50.306Z,99005.22
2019-05-02T09:58:19.517Z,99001.90
2019-05-02T10:00:42.003Z,99008.11
2019-05-02T10:03:11.952Z,99001.67
2019-05-02T10:05:38.786Z,99001.80
2019-05-02T10:08:08.060Z,99002.09
2019-05-02T10:10:37.240Z,98991.88
2019-05-02T10:13:03.253Z,98987.64
2019-05-02T10:15:32.541Z,98992.80
2019-05-02T10:18:08.747Z,98988.81
2019-05-02T10:20:34.021Z,98986.52
2019-05-02T10:22:57.480Z,98992.15
2019-05-02T10:25:24.423Z,98983.16
2019-05-02T10:27:52.378Z,98981.30
2019-05-02T10:30:19.365Z,98981.59
2019-05-02T10:32:47.220Z,98972.28
2019-05-02T10:35:15.192Z,98972.07
2019-05-02T10:37:43.037Z,98971.72
2019-05-02T10:40:13.466Z,98969.06
2019-05-02T10:42:41.918Z,98967.50
2019-05-02T10:45:13.044Z,98962.32
2019-05-02T10:47:37.915Z,98957.94
2019-05-02T10:50:04.947Z,98958.33
2019-05-02T10:52:34.183Z,98950.80
2019-05-02T10:55:02.515Z,98944.50
2019-05-02T10:57:29.181Z,98947.97
2019-05-02T10:59:56.334Z,98946.59
2019-05-02T11:02:23.773Z,98948.45
2019-05-02T11:04:52.441Z,98944.41
2019-05-02T11:07:22.585Z,98936.48
2019-05-02T11:09:49.241Z,98931.17
2019-05-02T11:12:16.370Z,98930.19
2019-05-02T11:14:45.030Z,98927.53
2019-05-02T11:17:13.948Z,98928.81
2019-05-02T11:19:41.982Z,98926.78
2019-05-02T11:22:09.174Z,98931.95
2019-05-02T11:24:36.156Z,98926.03
2019-05-02T11:27:03.093Z,98923.55
2019-05-02T11:29:32.247Z,98927.98
2019-05-02T11:31:58.954Z,98912.03
2019-05-02T11:34:25.909Z,98922.70
2019-05-02T11:36:52.882Z,98919.33
2019-05-02T11:39:27.054Z,98913.57
2019-05-02T11:41:49.106Z,98911.72
2019-05-02T11:44:16.041Z,98914.64
2019-05-02T11:46:46.767Z,98906.58
2019-05-02T11:49:12.256Z,98906.25
2019-05-02T11:51:39.640Z,98901.11
2019-05-02T11:54:09.335Z,98908.73
2019-05-02T11:56:42.976Z,98913.61
2019-05-02T11:59:06.116Z,98903.50
2019-05-02T12:01:37.157Z,98911.39
2019-05-02T12:04:02.986Z,98905.47
2019-05-02T12:06:30.145Z,98902.81
2019-05-02T12:08:57.478Z,98905.62
2019-05-02T12:11:24.365Z,98899.31
2019-05-02T12:13:52.674Z,98896.59
2019-05-02T12:16:19.903Z,98893.81
2019-05-02T12:18:47.098Z,98896.53
2019-05-02T12:21:13.978Z,98887.29
2019-05-02T12:23:41.873Z,98891.59
2019-05-02T12:26:09.186Z,98893.52
2019-05-02T12:28:36.540Z,98888.46
2019-05-02T12:31:03.426Z,98885.64
2019-05-02T12:33:31.753Z,98883.35
2019-05-02T12:36:00.005Z,98885.03
2019-05-02T12:38:27.184Z,98882.81
2019-05-02T12:40:54.137Z,98889.15
2019-05-02T12:43:22.888Z,98896.77
2019-05-02T12:45:49.909Z,98890.17
2019-05-02T12:48:16.812Z,98894.92
2019-05-02T12:50:43.729Z,98892.37
2019-05-02T12:53:12.665Z,98897.14
2019-05-02T12:55:39.274Z,98888.80
2019-05-02T12:58:06.173Z,98888.98
2019-05-02T13:00:33.374Z,98889.80
2019-05-02T13:03:02.004Z,98894.39
2019-05-02T13:05:29.026Z,98888.87
2019-05-02T13:07:55.955Z,98886.14
2019-05-02T13:10:22.941Z,98881.71
2019-05-02T13:12:49.887Z,98882.09
2019-05-02T13:15:16.789Z,98866.84
2019-05-02T13:17:48.733Z,98866.20
2019-05-02T13:20:12.418Z,98866.11
2019-05-02T13:22:39.492Z,98867.21
2019-05-02T13:25:06.432Z,98867.67
2019-05-02T13:27:43.482Z,98853.98
2019-05-02T13:30:03.400Z,98851.48
2019-05-02T13:32:32.156Z,98860.58
2019-05-02T13:34:59.520Z,98856.91
2019-05-02T13:37:26.665Z,98853.50
2019-05-02T13:39:53.533Z,98850.45
2019-05-02T13:42:21.946Z,98857.34
2019-05-02T13:44:49.001Z,98844.67
2019-05-02T13:47:18.969Z,98842.06
2019-05-02T13:49:53.910Z,98840.62
2019-05-02T13:52:14.548Z,98841.27
2019-05-02T13:54:42.628Z,98836.21
2019-05-02T13:57:09.757Z,98833.92
2019-05-02T13:59:36.972Z,98833.73
2019-05-02T14:02:03.961Z,98833.53
2019-05-02T14:04:32.695Z,98826.16
2019-05-02T14:06:59.505Z,98827.64
2019-05-02T14:09:26.419Z,98826.16
2019-05-02T14:11:53.336Z,98825.08
2019-05-02T14:14:20.334Z,98825.42
2019-05-02T14:16:47.318Z,98822.85
2019-05-02T14:19:14.482Z,98821.02
2019-05-02T14:21:42.129Z,98813.67
2019-05-02T14:24:09.304Z,98821.75
2019-05-02T14:26:36.279Z,98819.18
2019-05-02T14:29:07.161Z,98817.24
2019-05-02T14:31:32.334Z,98811.06
2019-05-02T14:33:59.328Z,98820.43
2019-05-02T14:36:26.311Z,98813.64
2019-05-02T14:38:53.268Z,98820.72
2019-05-02T14:41:21.786Z,98819.72
2019-05-02T14:43:48.920Z,98814.38
2019-05-02T14:46:17.933Z,98821.72
2019-05-02T14:48:45.883Z,98816.02
2019-05-02T14:51:16.551Z,98816.41
2019-05-02T14:53:42.980Z,98818.09
2019-05-02T14:56:12.492Z,98813.33
2019-05-02T14:58:39.945Z,98813.33
2019-05-02T15:01:06.854Z,98810.38
2019-05-02T15:03:34.078Z,98809.66
2019-05-02T15:06:04.072Z,98813.88
2019-05-02T15:08:32.118Z,98806.90
2019-05-02T15:10:58.776Z,98811.87
2019-05-02T15:13:25.889Z,98807.92
2019-05-02T15:15:53.062Z,98812.23
2019-05-02T15:18:20.444Z,98808.48
2019-05-02T15:20:47.397Z,98809.86
2019-05-02T15:23:19.593Z,98803.16
2019-05-02T15:25:47.076Z,98807.66
2019-05-02T15:28:13.062Z,98807.11
2019-05-02T15:30:44.924Z,98802.33
2019-05-02T15:33:09.698Z,98806.18
2019-05-02T15:35:36.642Z,98805.28
2019-05-02T15:38:06.744Z,98803.80
2019-05-02T15:43:02.817Z,98801.97
2019-05-02T15:45:27.934Z,98798.28
2019-05-02T15:47:54.852Z,98800.69
2019-05-02T15:50:25.597Z,98801.78
2019-05-02T15:52:52.517Z,98803.72
2019-05-02T15:55:21.942Z,98799.21
2019-05-02T15:57:49.985Z,98798.21
2019-05-02T16:00:22.959Z,98801.59
2019-05-02T16:02:45.550Z,98806.83
2019-05-02T16:05:12.516Z,98801.88
2019-05-02T16:07:44.951Z,98807.41
2019-05-02T16:10:08.126Z,98809.50
2019-05-02T16:12:36.212Z,98813.00
2019-05-02T16:15:07.188Z,98801.88
2019-05-02T16:17:33.424Z,98804.54
2019-05-02T16:20:09.447Z,98805.92
2019-05-02T16:22:30.567Z,98799.77
2019-05-02T16:24:57.431Z,98802.53
2019-05-02T16:27:27.692Z,98804.72
2019-05-02T16:29:53.331Z,98798.77
2019-05-02T16:32:22.022Z,98795.36
2019-05-02T16:34:54.259Z,98792.53
2019-05-02T16:37:18.876Z,98792.44
2019-05-02T16:39:49.454Z,98789.95
2019-05-02T16:42:14.429Z,98788.95
2019-05-02T16:44:42.901Z,98789.69
2019-05-02T16:47:10.142Z,98788.48
2019-05-02T16:49:37.384Z,98785.64
2019-05-02T16:52:08.313Z,98780.86
2019-05-02T16:54:34.539Z,98786.55
2019-05-02T16:57:03.214Z,98780.22
2019-05-02T16:59:30.396Z,98788.13
2019-05-02T17:01:59.525Z,98787.83
2019-05-02T17:04:25.980Z,98785.09
2019-05-02T17:06:56.939Z,98782.80
2019-05-02T17:09:24.056Z,98780.83
2019-05-02T17:11:52.303Z,98782.47
2019-05-02T17:14:19.131Z,98784.17
2019-05-02T17:16:47.019Z,98784.62
2019-05-02T17:19:15.369Z,98784.98
2019-05-02T17:21:53.003Z,98780.92
2019-05-02T17:24:12.653Z,98781.37
2019-05-02T17:26:40.164Z,98786.91
2019-05-02T17:29:07.063Z,98793.52
2019-05-02T17:31:34.089Z,98786.80
2019-05-02T17:34:02.759Z,98787.81
2019-05-02T17:36:30.603Z,98791.86
2019-05-02T17:38:59.266Z,98794.52
2019-05-02T17:41:26.989Z,98790.38
2019-05-02T17:43:57.545Z,98798.83
2019-05-02T17:46:25.881Z,98789.28
2019-05-02T17:48:52.710Z,98789.44
2019-05-02T17:51:20.008Z,98788.81
2019-05-02T17:53:49.798Z,98794.14
2019-05-02T17:56:20.481Z,98793.02
2019-05-02T17:58:47.424Z,98792.00
2019-05-02T18:01:12.770Z,98793.29
2019-05-02T18:03:39.648Z,98785.29
2019-05-02T18:06:07.467Z,98783.89
2019-05-02T18:08:35.148Z,98786.91
2019-05-02T18:11:02.962Z,98779.16
2019-05-02T18:13:33.843Z,98781.11
2019-05-02T18:15:58.951Z,98778.83
2019-05-02T18:18:25.954Z,98781.97
2019-05-02T18:20:53.252Z,98782.14
2019-05-02T18:23:25.900Z,98783.82
2019-05-02T18:25:48.763Z,98785.81
2019-05-02T18:28:22.268Z,98781.75
2019-05-02T18:30:44.615Z,98781.34
2019-05-02T18:33:12.640Z,98783.88
2019-05-02T18:35:45.251Z,98783.95
2019-05-02T18:38:08.209Z,98781.20
2019-05-02T18:40:35.145Z,98784.41
2019-05-02T18:43:05.278Z,98785.16
2019-05-02T18:45:31.872Z,98783.25
2019-05-02T18:48:02.171Z,98791.88
2019-05-02T18:50:27.594Z,98791.96
2019-05-02T18:52:54.942Z,98791.47
2019-05-02T18:55:23.057Z,98792.62
2019-05-02T18:57:52.344Z,98795.00
2019-05-02T19:00:22.865Z,98795.27
2019-05-02T19:02:50.343Z,98798.59
2019-05-02T19:05:19.216Z,98784.09
2019-05-02T19:07:47.302Z,98791.34
2019-05-02T19:10:14.549Z,98793.73
2019-05-02T19:12:42.024Z,98794.48
2019-05-02T19:15:09.470Z,98787.89
2019-05-02T19:17:39.145Z,98790.55
2019-05-02T19:20:06.255Z,98788.42
2019-05-02T19:22:34.551Z,98792.53
2019-05-02T19:25:03.731Z,98793.63
2019-05-02T19:27:30.085Z,98794.61
2019-05-02T19:29:57.366Z,98790.76
2019-05-02T19:32:26.988Z,98791.59
2019-05-02T19:34:53.237Z,98789.47
2019-05-02T19:37:21.685Z,98787.92
2019-05-02T19:39:48.969Z,98789.28
2019-05-02T19:42:17.167Z,98787.33
2019-05-02T19:44:44.942Z,98788.34
2019-05-02T19:47:15.560Z,98785.20
2019-05-02T19:49:42.379Z,98786.09
2019-05-02T19:52:09.060Z,98785.73
2019-05-02T19:54:39.567Z,98784.97
2019-05-02T19:57:04.626Z,98783.69
2019-05-02T19:59:32.159Z,98781.30
2019-05-02T20:02:02.426Z,98783.94
2019-05-02T20:04:28.204Z,98776.91
2019-05-02T20:06:55.092Z,98779.95
2019-05-02T20:09:22.408Z,98772.98
2019-05-02T20:11:49.339Z,98774.91
2019-05-02T20:14:16.678Z,98770.75
2019-05-02T20:16:45.823Z,98771.28
2019-05-02T20:19:12.457Z,98764.67
2019-05-02T20:21:39.496Z,98765.73
2019-05-02T20:24:09.156Z,98765.17
2019-05-02T20:26:35.035Z,98767.74
2019-05-02T20:29:02.111Z,98769.47
2019-05-02T20:31:29.078Z,98761.25
2019-05-02T20:33:56.302Z,98758.60
2019-05-02T20:36:23.241Z,98751.87
2019-05-02T20:38:50.181Z,98747.76
2019-05-02T20:41:17.113Z,98743.32
2019-05-02T20:43:44.956Z,98742.04
2019-05-02T20:46:12.224Z,98741.38
2019-05-02T20:48:39.195Z,98748.86
2019-05-02T20:51:06.518Z,98751.87
2019-05-02T20:53:34.208Z,98748.55
2019-05-02T20:56:01.910Z,98749.64
2019-05-02T20:58:29.041Z,98752.70
2019-05-02T21:01:05.426Z,98751.50
2019-05-02T21:03:24.553Z,98758.91
2019-05-02T21:05:52.121Z,98756.63
2019-05-02T21:08:19.112Z,98753.74
2019-05-02T21:10:46.069Z,98755.42
2019-05-02T21:13:13.081Z,98759.39
2019-05-02T21:15:40.028Z,98758.67
2019-05-02T21:18:07.249Z,98757.39
2019-05-02T21:20:34.178Z,98753.16
2019-05-02T21:23:01.972Z,98747.22
2019-05-02T21:25:29.378Z,98744.73
2019-05-02T21:27:56.242Z,98752.03
2019-05-02T21:30:23.109Z,98748.15
2019-05-02T21:32:51.996Z,98747.28
2019-05-02T21:35:19.050Z,98748.60
2019-05-02T21:37:46.313Z,98747.77
2019-05-02T21:40:13.196Z,98743.87
2019-05-02T21:42:40.139Z,98748.47
2019-05-02T21:45:07.072Z,98740.72
2019-05-02T21:47:34.005Z,98745.13
2019-05-02T21:50:01.835Z,98741.16
2019-05-02T21:52:28.880Z,98747.77
2019-05-02T21:54:55.777Z,98742.44
2019-05-02T21:57:22.746Z,98736.32
2019-05-02T21:59:49.685Z,98734.08
2019-05-02T22:02:16.564Z,98739.64
2019-05-02T22:04:43.538Z,98744.27
2019-05-02T22:07:12.198Z,98739.89
2019-05-02T22:09:39.213Z,98742.23
2019-05-02T22:12:06.136Z,98745.24
2019-05-02T22:14:33.028Z,98746.44
2019-05-02T22:17:02.159Z,98752.33
2019-05-02T22:19:28.535Z,98759.70
2019-05-02T22:21:55.398Z,98751.86
2019-05-02T22:24:22.261Z,98758.71
2019-05-02T22:26:49.196Z,98767.36
2019-05-02T22:29:16.159Z,98772.94
2019-05-02T22:31:43.216Z,98778.50
2019-05-02T22:34:12.908Z,98788.38
2019-05-02T22:36:40.032Z,98791.31
2019-05-02T22:39:07.862Z,98796.06
2019-05-02T22:41:35.416Z,98791.98
2019-05-02T22:44:02.299Z,98790.09
2019-05-02T22:46:29.257Z,98792.73
2019-05-02T22:48:56.116Z,98792.30
2019-05-02T22:51:22.989Z,98788.29
2019-05-02T22:53:49.855Z,98787.85
2019-05-02T22:56:17.016Z,98786.97
2019-05-02T22:58:44.965Z,98786.05
2019-05-02T23:01:11.913Z,98792.45
2019-05-02T23:03:38.769Z,98786.20
2019-05-02T23:06:05.672Z,98787.09
2019-05-02T23:08:32.612Z,98793.48
2019-05-02T23:10:59.585Z,98789.44
2019-05-02T23:13:26.532Z,98792.52
2019-05-02T23:15:53.409Z,98790.42
2019-05-02T23:18:20.273Z,98795.30
2019-05-02T23:20:47.200Z,98794.62
2019-05-02T23:23:14.182Z,98793.64
2019-05-02T23:25:42.540Z,98791.61
2019-05-02T23:28:09.578Z,98790.27
2019-05-02T23:30:36.522Z,98796.19
2019-05-02T23:33:03.392Z,98799.25
2019-05-02T23:35:31.981Z,98797.09
2019-05-02T23:37:59.276Z,98788.36
2019-05-02T23:40:26.189Z,98788.29
2019-05-02T23:42:53.063Z,98793.19
2019-05-02T23:45:19.932Z,98787.77
2019-05-02T23:47:47.181Z,98792.66
2019-05-02T23:50:14.450Z,98795.44
2019-05-02T23:52:41.405Z,98794.99
2019-05-02T23:55:08.260Z,98801.24
2019-05-02T23:57:35.144Z,98797.84
